sensor_id;sensor_type;location;lat;lon;timestamp;pressure;altitude;pressure_sealevel;temperature;humidity
48964;BME280;34776;48.180;16.420;2022-07-22T00:01:52;100002.06;;;26.05;52.25
48964;BME280;34776;48.180;16.420;2022-07-22T00:04:17;100001.06;;;25.98;52.16
48964;BME280;34776;48.180;16.420;2022-07-22T00:06:43;100008.56;;;25.96;52.32
48964;BME280;34776;48.180;16.420;2022-07-22T00:09:09;100010.94;;;25.91;52.22
48964;BME280;34776;48.180;16.420;2022-07-22T00:11:34;100015.00;;;25.87;52.54
48964;BME280;34776;48.180;16.420;2022-07-22T00:14:00;100024.53;;;25.83;52.35
48964;BME280;34776;48.180;16.420;2022-07-22T00:16:26;100024.22;;;25.78;52.69
48964;BME280;34776;48.180;16.420;2022-07-22T00:18:51;100032.75;;;25.75;52.62
48964;BME280;34776;48.180;16.420;2022-07-22T00:21:17;100032.56;;;25.68;52.62
48964;BME280;34776;48.180;16.420;2022-07-22T00:23:42;100035.78;;;25.63;52.78
48964;BME280;34776;48.180;16.420;2022-07-22T00:26:07;100034.78;;;25.56;52.60
48964;BME280;34776;48.180;16.420;2022-07-22T00:28:33;100030.34;;;25.47;52.69
48964;BME280;34776;48.180;16.420;2022-07-22T00:30:58;100033.75;;;25.41;52.78
48964;BME280;34776;48.180;16.420;2022-07-22T00:33:24;100031.03;;;25.41;52.66
48964;BME280;34776;48.180;16.420;2022-07-22T00:35:49;100034.94;;;25.38;52.78
48964;BME280;34776;48.180;16.420;2022-07-22T00:38:15;100033.09;;;25.30;52.88
48964;BME280;34776;48.180;16.420;2022-07-22T00:40:40;100044.44;;;25.26;53.30
48964;BME280;34776;48.180;16.420;2022-07-22T00:43:05;100030.31;;;25.14;53.51
48964;BME280;34776;48.180;16.420;2022-07-22T00:45:31;100043.53;;;25.09;53.89
48964;BME280;34776;48.180;16.420;2022-07-22T00:47:56;100032.66;;;25.01;54.33
48964;BME280;34776;48.180;16.420;2022-07-22T00:50:22;100026.53;;;24.99;54.20
48964;BME280;34776;48.180;16.420;2022-07-22T00:52:49;100024.66;;;24.91;54.46
48964;BME280;34776;48.180;16.420;2022-07-22T00:55:14;100027.88;;;24.86;54.88
48964;BME280;34776;48.180;16.420;2022-07-22T00:57:41;100034.00;;;24.80;54.93
48964;BME280;34776;48.180;16.420;2022-07-22T01:00:10;100024.81;;;24.81;54.99
48964;BME280;34776;48.180;16.420;2022-07-22T01:02:36;100021.41;;;24.79;55.18
48964;BME280;34776;48.180;16.420;2022-07-22T01:05:02;100026.16;;;24.77;55.53
48964;BME280;34776;48.180;16.420;2022-07-22T01:07:27;100019.03;;;24.76;55.35
48964;BME280;34776;48.180;16.420;2022-07-22T01:09:53;100026.31;;;24.76;55.47
48964;BME280;34776;48.180;16.420;2022-07-22T01:12:18;100029.22;;;24.74;55.75
48964;BME280;34776;48.180;16.420;2022-07-22T01:14:43;100031.91;;;24.66;55.65
48964;BME280;34776;48.180;16.420;2022-07-22T01:17:09;100027.66;;;24.63;55.67
48964;BME280;34776;48.180;16.420;2022-07-22T01:19:36;100034.09;;;24.62;56.02
48964;BME280;34776;48.180;16.420;2022-07-22T01:22:01;100032.56;;;24.60;56.12
48964;BME280;34776;48.180;16.420;2022-07-22T01:24:27;100032.56;;;24.60;56.17
48964;BME280;34776;48.180;16.420;2022-07-22T01:26:52;100036.28;;;24.59;56.28
48964;BME280;34776;48.180;16.420;2022-07-22T01:29:18;100041.72;;;24.59;56.66
48964;BME280;34776;48.180;16.420;2022-07-22T01:31:43;100040.66;;;24.51;56.78
48964;BME280;34776;48.180;16.420;2022-07-22T01:34:09;100040.66;;;24.51;56.67
48964;BME280;34776;48.180;16.420;2022-07-22T01:36:34;100039.63;;;24.52;56.64
48964;BME280;34776;48.180;16.420;2022-07-22T01:38:59;100040.09;;;24.48;56.59
48964;BME280;34776;48.180;16.420;2022-07-22T01:41:25;100037.56;;;24.46;56.69
48964;BME280;34776;48.180;16.420;2022-07-22T01:43:50;100033.81;;;24.47;56.56
48964;BME280;34776;48.180;16.420;2022-07-22T01:46:16;100041.44;;;24.44;56.52
48964;BME280;34776;48.180;16.420;2022-07-22T01:48:44;100038.91;;;24.42;56.38
48964;BME280;34776;48.180;16.420;2022-07-22T01:51:09;100034.47;;;24.41;56.48
48964;BME280;34776;48.180;16.420;2022-07-22T01:53:35;100034.81;;;24.38;56.37
48964;BME280;34776;48.180;16.420;2022-07-22T01:56:00;100030.22;;;24.39;56.09
48964;BME280;34776;48.180;16.420;2022-07-22T01:58:26;100031.06;;;24.39;56.03
48964;BME280;34776;48.180;16.420;2022-07-22T02:00:51;100022.25;;;24.37;56.28
48964;BME280;34776;48.180;16.420;2022-07-22T02:03:17;100021.41;;;24.37;56.21
48964;BME280;34776;48.180;16.420;2022-07-22T02:05:43;100024.31;;;24.43;55.99
48964;BME280;34776;48.180;16.420;2022-07-22T02:08:09;100022.28;;;24.45;55.83
48964;BME280;34776;48.180;16.420;2022-07-22T02:10:36;100015.16;;;24.44;55.92
48964;BME280;34776;48.180;16.420;2022-07-22T02:13:03;100021.06;;;24.40;55.79
48964;BME280;34776;48.180;16.420;2022-07-22T02:15:28;100015.81;;;24.38;55.97
48964;BME280;34776;48.180;16.420;2022-07-22T02:17:54;100019.91;;;24.42;56.18
48964;BME280;34776;48.180;16.420;2022-07-22T02:20:20;100020.22;;;24.39;56.20
48964;BME280;34776;48.180;16.420;2022-07-22T02:22:46;100023.94;;;24.38;55.98
48964;BME280;34776;48.180;16.420;2022-07-22T02:25:11;100027.66;;;24.37;56.00
48964;BME280;34776;48.180;16.420;2022-07-22T02:27:37;100022.25;;;24.37;56.13
48964;BME280;34776;48.180;16.420;2022-07-22T02:30:04;100020.00;;;24.33;56.03
48964;BME280;34776;48.180;16.420;2022-07-22T02:32:30;100022.25;;;24.37;55.98
48964;BME280;34776;48.180;16.420;2022-07-22T02:34:57;100021.41;;;24.37;55.98
48964;BME280;34776;48.180;16.420;2022-07-22T02:37:22;100015.75;;;24.30;55.87
48964;BME280;34776;48.180;16.420;2022-07-22T02:39:47;100014.22;;;24.27;56.08
48964;BME280;34776;48.180;16.420;2022-07-22T02:42:13;100016.94;;;24.27;55.74
48964;BME280;34776;48.180;16.420;2022-07-22T02:44:38;100022.88;;;24.31;55.69
48964;BME280;34776;48.180;16.420;2022-07-22T02:47:04;100013.34;;;24.27;56.08
48964;BME280;34776;48.180;16.420;2022-07-22T02:49:29;100019.47;;;24.29;55.72
48964;BME280;34776;48.180;16.420;2022-07-22T02:51:55;100026.09;;;24.26;55.98
48964;BME280;34776;48.180;16.420;2022-07-22T02:54:21;100011.81;;;24.24;55.93
48964;BME280;34776;48.180;16.420;2022-07-22T02:56:46;100019.28;;;24.22;56.10
48964;BME280;34776;48.180;16.420;2022-07-22T02:59:12;100020.78;;;24.17;56.08
48964;BME280;34776;48.180;16.420;2022-07-22T03:01:37;100026.53;;;24.14;56.19
48964;BME280;34776;48.180;16.420;2022-07-22T03:04:02;100025.84;;;24.11;56.21
48964;BME280;34776;48.180;16.420;2022-07-22T03:06:28;100025.16;;;24.09;56.34
48964;BME280;34776;48.180;16.420;2022-07-22T03:08:53;100034.00;;;24.11;56.43
48964;BME280;34776;48.180;16.420;2022-07-22T03:11:19;100033.16;;;24.11;56.36
48964;BME280;34776;48.180;16.420;2022-07-22T03:13:44;100040.13;;;24.14;56.40
48964;BME280;34776;48.180;16.420;2022-07-22T03:16:10;100044.84;;;24.11;56.73
48964;BME280;34776;48.180;16.420;2022-07-22T03:18:35;100042.28;;;24.10;56.55
48964;BME280;34776;48.180;16.420;2022-07-22T03:21:01;100038.25;;;24.14;56.51
48964;BME280;34776;48.180;16.420;2022-07-22T03:23:26;100035.69;;;24.13;56.74
48964;BME280;34776;48.180;16.420;2022-07-22T03:25:52;100044.50;;;24.15;56.65
48964;BME280;34776;48.180;16.420;2022-07-22T03:28:17;100041.09;;;24.13;56.57
48964;BME280;34776;48.180;16.420;2022-07-22T03:30:43;100044.22;;;24.18;56.45
48964;BME280;34776;48.180;16.420;2022-07-22T03:33:08;100055.06;;;24.18;56.51
48964;BME280;34776;48.180;16.420;2022-07-22T03:35:33;100044.22;;;24.18;56.52
48964;BME280;34776;48.180;16.420;2022-07-22T03:37:59;100047.63;;;24.20;56.44
48964;BME280;34776;48.180;16.420;2022-07-22T03:40:24;100038.13;;;24.24;56.42
48964;BME280;34776;48.180;16.420;2022-07-22T03:42:49;100028.97;;;24.25;56.20
48964;BME280;34776;48.180;16.420;2022-07-22T03:45:15;100033.75;;;24.31;56.27
48964;BME280;34776;48.180;16.420;2022-07-22T03:47:41;100038.69;;;24.36;56.15
48964;BME280;34776;48.180;16.420;2022-07-22T03:50:07;100040.25;;;24.38;55.95
48964;BME280;34776;48.180;16.420;2022-07-22T03:52:32;100046.53;;;24.39;56.17
48964;BME280;34776;48.180;16.420;2022-07-22T03:54:57;100050.63;;;24.43;55.92
48964;BME280;34776;48.180;16.420;2022-07-22T03:57:23;100048.44;;;24.46;55.80
48964;BME280;34776;48.180;16.420;2022-07-22T03:59:48;100048.13;;;24.49;55.85
48964;BME280;34776;48.180;16.420;2022-07-22T04:02:14;100049.66;;;24.52;55.82
48964;BME280;34776;48.180;16.420;2022-07-22T04:04:39;100052.06;;;24.55;55.44
48964;BME280;34776;48.180;16.420;2022-07-22T04:07:05;100049.84;;;24.59;55.26
48964;BME280;34776;48.180;16.420;2022-07-22T04:09:30;100048.50;;;24.63;55.22
48964;BME280;34776;48.180;16.420;2022-07-22T04:11:56;100039.22;;;24.65;55.29
48964;BME280;34776;48.180;16.420;2022-07-22T04:14:21;100047.66;;;24.62;55.30
48964;BME280;34776;48.180;16.420;2022-07-22T04:16:47;100051.06;;;24.64;55.15
48964;BME280;34776;48.180;16.420;2022-07-22T04:19:12;100049.03;;;24.66;55.15
48964;BME280;34776;48.180;16.420;2022-07-22T04:21:38;100049.41;;;24.80;54.78
48964;BME280;34776;48.180;16.420;2022-07-22T04:24:04;100055.41;;;24.91;54.57
48964;BME280;34776;48.180;16.420;2022-07-22T04:26:30;100050.84;;;25.00;54.29
48964;BME280;34776;48.180;16.420;2022-07-22T04:28:56;100048.31;;;25.07;54.12
48964;BME280;34776;48.180;16.420;2022-07-22T04:31:21;100044.25;;;25.19;53.75
48964;BME280;34776;48.180;16.420;2022-07-22T04:33:47;100051.09;;;25.40;53.27
48964;BME280;34776;48.180;16.420;2022-07-22T04:36:13;100046.00;;;25.45;52.92
48964;BME280;34776;48.180;16.420;2022-07-22T04:38:38;100052.81;;;25.49;52.80
48964;BME280;34776;48.180;16.420;2022-07-22T04:41:04;100049.75;;;25.44;53.09
48964;BME280;34776;48.180;16.420;2022-07-22T04:43:29;100053.31;;;25.44;52.84
48964;BME280;34776;48.180;16.420;2022-07-22T04:45:55;100057.41;;;25.40;52.99
48964;BME280;34776;48.180;16.420;2022-07-22T04:48:21;100052.31;;;25.37;52.97
48964;BME280;34776;48.180;16.420;2022-07-22T04:50:46;100051.44;;;25.28;53.36
48964;BME280;34776;48.180;16.420;2022-07-22T04:53:12;100042.25;;;25.29;53.18
48964;BME280;34776;48.180;16.420;2022-07-22T04:55:37;100053.81;;;25.31;53.31
48964;BME280;34776;48.180;16.420;2022-07-22T04:58:03;100053.50;;;25.35;52.88
48964;BME280;34776;48.180;16.420;2022-07-22T05:00:28;100061.16;;;25.39;52.84
48964;BME280;34776;48.180;16.420;2022-07-22T05:02:54;100058.91;;;25.43;52.56
48964;BME280;34776;48.180;16.420;2022-07-22T05:05:20;100062.66;;;25.42;52.55
48964;BME280;34776;48.180;16.420;2022-07-22T05:07:45;100063.34;;;25.44;52.56
48964;BME280;34776;48.180;16.420;2022-07-22T05:10:11;100071.69;;;25.42;52.54
48964;BME280;34776;48.180;16.420;2022-07-22T05:12:36;100072.19;;;25.46;52.24
48964;BME280;34776;48.180;16.420;2022-07-22T05:15:02;100071.84;;;25.49;52.37
48964;BME280;34776;48.180;16.420;2022-07-22T05:17:28;100076.97;;;25.52;52.21
48964;BME280;34776;48.180;16.420;2022-07-22T05:19:53;100076.63;;;25.55;52.00
48964;BME280;34776;48.180;16.420;2022-07-22T05:22:19;100080.69;;;25.59;52.31
48964;BME280;34776;48.180;16.420;2022-07-22T05:24:45;100077.66;;;25.70;52.04
48964;BME280;34776;48.180;16.420;2022-07-22T05:27:10;100074.25;;;25.77;51.94
48964;BME280;34776;48.180;16.420;2022-07-22T05:29:35;100071.50;;;25.85;51.71
48964;BME280;34776;48.180;16.420;2022-07-22T05:32:01;100065.91;;;25.95;51.55
48964;BME280;34776;48.180;16.420;2022-07-22T05:34:26;100069.81;;;26.00;51.27
48964;BME280;34776;48.180;16.420;2022-07-22T05:36:52;100067.78;;;26.02;51.21
48964;BME280;34776;48.180;16.420;2022-07-22T05:39:17;100068.09;;;26.07;50.80
48964;BME280;34776;48.180;16.420;2022-07-22T05:41:43;100069.13;;;26.15;50.73
48964;BME280;34776;48.180;16.420;2022-07-22T05:44:09;100073.22;;;26.19;50.47
48964;BME280;34776;48.180;16.420;2022-07-22T05:46:34;100072.84;;;26.22;50.47
48964;BME280;34776;48.180;16.420;2022-07-22T05:49:00;100076.75;;;26.27;50.32
48964;BME280;34776;48.180;16.420;2022-07-22T05:51:25;100072.44;;;26.41;50.12
48964;BME280;34776;48.180;16.420;2022-07-22T05:53:50;100066.97;;;26.58;49.93
48964;BME280;34776;48.180;16.420;2022-07-22T05:56:16;100065.94;;;26.67;49.60
48964;BME280;34776;48.180;16.420;2022-07-22T05:58:42;100066.91;;;26.74;49.28
48964;BME280;34776;48.180;16.420;2022-07-22T06:01:11;100073.66;;;26.86;48.96
48964;BME280;34776;48.180;16.420;2022-07-22T06:03:36;100070.69;;;26.96;48.77
48964;BME280;34776;48.180;16.420;2022-07-22T06:06:02;100078.38;;;27.01;48.43
48964;BME280;34776;48.180;16.420;2022-07-22T06:08:30;100071.66;;;27.11;48.58
48964;BME280;34776;48.180;16.420;2022-07-22T06:10:56;100069.31;;;27.31;47.99
48964;BME280;34776;48.180;16.420;2022-07-22T06:13:22;100069.75;;;27.43;47.38
48964;BME280;34776;48.180;16.420;2022-07-22T06:15:47;100073.25;;;27.52;47.14
48964;BME280;34776;48.180;16.420;2022-07-22T06:18:12;100075.56;;;27.63;46.45
48964;BME280;34776;48.180;16.420;2022-07-22T06:20:39;100066.44;;;27.71;46.07
48964;BME280;34776;48.180;16.420;2022-07-22T06:23:04;100072.69;;;27.80;45.56
48964;BME280;34776;48.180;16.420;2022-07-22T06:25:29;100071.25;;;27.92;45.41
48964;BME280;34776;48.180;16.420;2022-07-22T06:27:55;100071.66;;;28.19;45.07
48964;BME280;34776;48.180;16.420;2022-07-22T06:30:20;100072.06;;;28.60;44.40
48964;BME280;34776;48.180;16.420;2022-07-22T06:32:46;100072.28;;;29.96;42.27
48964;BME280;34776;48.180;16.420;2022-07-22T06:35:11;100068.56;;;31.35;39.16
48964;BME280;34776;48.180;16.420;2022-07-22T06:37:37;100065.28;;;33.30;36.17
48964;BME280;34776;48.180;16.420;2022-07-22T06:40:03;100068.41;;;35.14;33.74
48964;BME280;34776;48.180;16.420;2022-07-22T06:42:28;100064.00;;;35.67;32.17
48964;BME280;34776;48.180;16.420;2022-07-22T06:44:54;100064.03;;;36.62;30.14
48964;BME280;34776;48.180;16.420;2022-07-22T06:47:19;100057.75;;;37.35;29.34
48964;BME280;34776;48.180;16.420;2022-07-22T06:49:44;100053.00;;;38.54;28.70
48964;BME280;34776;48.180;16.420;2022-07-22T06:52:10;100055.75;;;39.48;26.58
48964;BME280;34776;48.180;16.420;2022-07-22T06:54:35;100049.06;;;39.81;26.16
48964;BME280;34776;48.180;16.420;2022-07-22T06:57:01;100050.78;;;40.25;25.45
48964;BME280;34776;48.180;16.420;2022-07-22T06:59:26;100055.28;;;40.78;24.79
48964;BME280;34776;48.180;16.420;2022-07-22T07:01:52;100059.41;;;40.76;24.06
48964;BME280;34776;48.180;16.420;2022-07-22T07:04:17;100051.84;;;40.71;24.48
48964;BME280;34776;48.180;16.420;2022-07-22T07:06:44;100053.94;;;41.07;23.97
48964;BME280;34776;48.180;16.420;2022-07-22T07:09:09;100047.34;;;41.95;22.80
48964;BME280;34776;48.180;16.420;2022-07-22T07:11:35;100042.34;;;41.76;22.95
48964;BME280;34776;48.180;16.420;2022-07-22T07:14:01;100049.34;;;41.58;23.19
48964;BME280;34776;48.180;16.420;2022-07-22T07:16:26;100044.09;;;42.68;22.46
48964;BME280;34776;48.180;16.420;2022-07-22T07:18:52;100047.41;;;43.30;21.30
48964;BME280;34776;48.180;16.420;2022-07-22T07:21:17;100037.72;;;43.52;20.81
48964;BME280;34776;48.180;16.420;2022-07-22T07:23:43;100036.00;;;43.16;20.91
48964;BME280;34776;48.180;16.420;2022-07-22T07:26:09;100034.97;;;43.07;21.24
48964;BME280;34776;48.180;16.420;2022-07-22T07:28:34;100040.72;;;43.21;20.78
48964;BME280;34776;48.180;16.420;2022-07-22T07:31:00;100041.88;;;42.65;20.91
48964;BME280;34776;48.180;16.420;2022-07-22T07:33:26;100044.03;;;42.84;20.90
48964;BME280;34776;48.180;16.420;2022-07-22T07:35:51;100034.22;;;42.06;21.36
48964;BME280;34776;48.180;16.420;2022-07-22T07:38:17;100039.44;;;42.38;21.57
48964;BME280;34776;48.180;16.420;2022-07-22T07:40:42;100047.16;;;43.22;20.40
48964;BME280;34776;48.180;16.420;2022-07-22T07:43:08;100035.59;;;42.94;20.79
48964;BME280;34776;48.180;16.420;2022-07-22T07:45:33;100036.66;;;43.43;20.31
48964;BME280;34776;48.180;16.420;2022-07-22T07:48:00;100032.84;;;43.97;19.80
48964;BME280;34776;48.180;16.420;2022-07-22T07:50:27;100039.31;;;44.70;19.04
48964;BME280;34776;48.180;16.420;2022-07-22T07:52:52;100029.63;;;44.38;19.07
48964;BME280;34776;48.180;16.420;2022-07-22T07:55:18;100033.22;;;43.56;20.09
48964;BME280;34776;48.180;16.420;2022-07-22T07:57:44;100038.75;;;43.61;19.67
48964;BME280;34776;48.180;16.420;2022-07-22T08:00:12;100032.69;;;43.54;19.58
48964;BME280;34776;48.180;16.420;2022-07-22T08:02:38;100031.81;;;43.53;19.64
48964;BME280;34776;48.180;16.420;2022-07-22T08:05:05;100038.63;;;43.76;19.53
48964;BME280;34776;48.180;16.420;2022-07-22T08:07:30;100026.59;;;44.10;19.31
48964;BME280;34776;48.180;16.420;2022-07-22T08:09:56;100031.34;;;44.77;18.48
48964;BME280;34776;48.180;16.420;2022-07-22T08:12:21;100028.38;;;45.30;18.15
48964;BME280;34776;48.180;16.420;2022-07-22T08:14:47;100024.03;;;45.38;17.93
48964;BME280;34776;48.180;16.420;2022-07-22T08:17:13;100034.72;;;44.98;18.23
48964;BME280;34776;48.180;16.420;2022-07-22T08:19:38;100032.94;;;44.40;18.73
48964;BME280;34776;48.180;16.420;2022-07-22T08:22:04;100022.41;;;44.75;18.44
48964;BME280;34776;48.180;16.420;2022-07-22T08:24:29;100024.09;;;44.76;18.66
48964;BME280;34776;48.180;16.420;2022-07-22T08:26:55;100019.47;;;44.42;18.73
48964;BME280;34776;48.180;16.420;2022-07-22T08:29:20;100018.84;;;44.50;18.97
48964;BME280;34776;48.180;16.420;2022-07-22T08:31:46;100011.78;;;44.29;19.33
48964;BME280;34776;48.180;16.420;2022-07-22T08:34:12;100019.69;;;44.70;19.07
48964;BME280;34776;48.180;16.420;2022-07-22T08:36:37;100016.63;;;44.90;18.51
48964;BME280;34776;48.180;16.420;2022-07-22T08:39:03;100007.00;;;44.96;18.16
48964;BME280;34776;48.180;16.420;2022-07-22T08:41:34;100005.31;;;45.14;18.53
48964;BME280;34776;48.180;16.420;2022-07-22T08:44:01;100016.78;;;44.56;18.58
48964;BME280;34776;48.180;16.420;2022-07-22T08:46:27;100011.25;;;44.27;19.14
48964;BME280;34776;48.180;16.420;2022-07-22T08:48:53;100015.06;;;44.60;18.72
48964;BME280;34776;48.180;16.420;2022-07-22T08:51:20;100024.66;;;45.16;18.38
48964;BME280;34776;48.180;16.420;2022-07-22T08:53:45;100009.16;;;44.81;18.57
48964;BME280;34776;48.180;16.420;2022-07-22T08:56:12;100011.84;;;44.24;19.10
48964;BME280;34776;48.180;16.420;2022-07-22T08:58:38;100004.91;;;43.92;19.31
48964;BME280;34776;48.180;16.420;2022-07-22T09:01:08;100006.56;;;43.93;19.15
48964;BME280;34776;48.180;16.420;2022-07-22T09:03:44;100008.41;;;43.05;19.57
48964;BME280;34776;48.180;16.420;2022-07-22T09:06:11;100002.56;;;42.41;20.86
48964;BME280;34776;48.180;16.420;2022-07-22T09:08:56;100009.97;;;41.75;21.18
48964;BME280;34776;48.180;16.420;2022-07-22T09:11:24;100005.78;;;41.27;22.17
48964;BME280;34776;48.180;16.420;2022-07-22T09:13:51;100002.69;;;39.92;23.63
48964;BME280;34776;48.180;16.420;2022-07-22T09:16:44;99998.59;;;39.03;23.35
48964;BME280;34776;48.180;16.420;2022-07-22T09:19:10;100003.03;;;38.15;25.59
48964;BME280;34776;48.180;16.420;2022-07-22T09:21:39;100001.91;;;37.77;25.91
48964;BME280;34776;48.180;16.420;2022-07-22T09:24:05;100001.47;;;37.35;26.34
48964;BME280;34776;48.180;16.420;2022-07-22T09:26:32;99987.63;;;37.06;26.81
48964;BME280;34776;48.180;16.420;2022-07-22T09:28:59;99998.47;;;36.79;26.89
48964;BME280;34776;48.180;16.420;2022-07-22T09:31:26;99998.81;;;36.42;26.92
48964;BME280;34776;48.180;16.420;2022-07-22T09:33:52;99995.00;;;36.20;27.51
48964;BME280;34776;48.180;16.420;2022-07-22T09:36:19;99993.22;;;35.90;27.47
48964;BME280;34776;48.180;16.420;2022-07-22T09:38:45;99988.03;;;35.58;27.85
48964;BME280;34776;48.180;16.420;2022-07-22T09:41:10;99980.31;;;35.36;28.21
48964;BME280;34776;48.180;16.420;2022-07-22T09:43:36;99981.00;;;35.32;28.15
48964;BME280;34776;48.180;16.420;2022-07-22T09:46:02;99978.03;;;35.45;28.67
48964;BME280;34776;48.180;16.420;2022-07-22T09:48:29;99977.09;;;35.51;27.92
48964;BME280;34776;48.180;16.420;2022-07-22T09:50:55;99976.94;;;35.34;28.19
48964;BME280;34776;48.180;16.420;2022-07-22T09:53:23;99980.84;;;35.15;28.64
48964;BME280;34776;48.180;16.420;2022-07-22T09:55:49;99986.31;;;35.03;28.02
48964;BME280;34776;48.180;16.420;2022-07-22T09:58:15;99970.59;;;35.04;27.81
48964;BME280;34776;48.180;16.420;2022-07-22T10:00:41;99965.78;;;35.11;28.24
48964;BME280;34776;48.180;16.420;2022-07-22T10:03:11;99970.09;;;35.07;28.02
48964;BME280;34776;48.180;16.420;2022-07-22T10:05:38;99974.28;;;34.97;27.80
48964;BME280;34776;48.180;16.420;2022-07-22T10:08:05;99962.56;;;34.72;28.49
48964;BME280;34776;48.180;16.420;2022-07-22T10:10:33;99959.00;;;34.83;28.41
48964;BME280;34776;48.180;16.420;2022-07-22T10:13:00;99954.31;;;35.14;27.67
48964;BME280;34776;48.180;16.420;2022-07-22T10:15:28;99948.91;;;35.19;28.13
48964;BME280;34776;48.180;16.420;2022-07-22T10:17:56;99943.78;;;35.34;27.99
48964;BME280;34776;48.180;16.420;2022-07-22T10:20:25;99948.81;;;35.61;27.56
48964;BME280;34776;48.180;16.420;2022-07-22T10:25:21;99941.97;;;35.52;27.73
48964;BME280;34776;48.180;16.420;2022-07-22T10:28:09;99936.69;;;35.62;27.42
48964;BME280;34776;48.180;16.420;2022-07-22T10:30:36;99948.59;;;35.63;27.52
48964;BME280;34776;48.180;16.420;2022-07-22T10:33:14;99935.84;;;35.50;27.78
48964;BME280;34776;48.180;16.420;2022-07-22T10:38:10;99930.56;;;35.36;27.34
48964;BME280;34776;48.180;16.420;2022-07-22T10:40:49;99924.31;;;35.29;26.98
48964;BME280;34776;48.180;16.420;2022-07-22T10:43:17;99920.94;;;35.51;27.00
48964;BME280;34776;48.180;16.420;2022-07-22T10:45:51;99921.69;;;35.82;26.40
48964;BME280;34776;48.180;16.420;2022-07-22T10:48:44;99923.97;;;35.73;27.07
48964;BME280;34776;48.180;16.420;2022-07-22T10:51:18;99920.34;;;35.84;26.69
48964;BME280;34776;48.180;16.420;2022-07-22T10:53:45;99921.03;;;36.03;26.52
48964;BME280;34776;48.180;16.420;2022-07-22T10:56:26;99920.56;;;36.18;26.83
48964;BME280;34776;48.180;16.420;2022-07-22T10:58:59;99910.34;;;36.47;25.66
48964;BME280;34776;48.180;16.420;2022-07-22T11:01:30;99907.53;;;36.59;25.67
48964;BME280;34776;48.180;16.420;2022-07-22T11:04:07;99903.03;;;36.41;25.37
48964;BME280;34776;48.180;16.420;2022-07-22T11:06:33;99900.56;;;36.56;25.67
48964;BME280;34776;48.180;16.420;2022-07-22T11:09:10;99893.25;;;36.79;24.93
48964;BME280;34776;48.180;16.420;2022-07-22T11:11:44;99897.13;;;36.78;25.25
48964;BME280;34776;48.180;16.420;2022-07-22T11:16:38;99893.13;;;37.03;24.94
48964;BME280;34776;48.180;16.420;2022-07-22T11:19:04;99888.47;;;37.08;24.93
48964;BME280;34776;48.180;16.420;2022-07-22T11:21:32;99885.31;;;37.33;24.16
48964;BME280;34776;48.180;16.420;2022-07-22T11:24:00;99888.66;;;37.35;24.22
48964;BME280;34776;48.180;16.420;2022-07-22T11:29:08;99873.84;;;37.81;23.85
48964;BME280;34776;48.180;16.420;2022-07-22T11:31:35;99879.75;;;37.89;23.62
48964;BME280;34776;48.180;16.420;2022-07-22T11:34:09;99876.06;;;37.84;22.92
48964;BME280;34776;48.180;16.420;2022-07-22T11:36:39;99876.75;;;37.91;23.64
48964;BME280;34776;48.180;16.420;2022-07-22T11:39:06;99874.09;;;38.23;23.15
48964;BME280;34776;48.180;16.420;2022-07-22T11:41:32;99864.25;;;38.10;22.95
48964;BME280;34776;48.180;16.420;2022-07-22T11:43:58;99868.09;;;38.31;23.03
48964;BME280;34776;48.180;16.420;2022-07-22T11:46:25;99867.16;;;38.48;22.70
48964;BME280;34776;48.180;16.420;2022-07-22T11:48:52;99856.53;;;38.67;22.67
48964;BME280;34776;48.180;16.420;2022-07-22T11:51:17;99859.16;;;38.51;22.55
48964;BME280;34776;48.180;16.420;2022-07-22T11:53:43;99846.22;;;38.94;22.36
48964;BME280;34776;48.180;16.420;2022-07-22T11:56:10;99848.09;;;38.56;22.45
48964;BME280;34776;48.180;16.420;2022-07-22T11:58:44;99841.41;;;38.30;22.64
48964;BME280;34776;48.180;16.420;2022-07-22T12:01:16;99838.81;;;38.18;22.22
48964;BME280;34776;48.180;16.420;2022-07-22T12:03:45;99827.72;;;38.73;22.02
48964;BME280;34776;48.180;16.420;2022-07-22T12:06:13;99833.16;;;38.95;21.99
48964;BME280;34776;48.180;16.420;2022-07-22T12:08:45;99832.66;;;39.35;21.30
48964;BME280;34776;48.180;16.420;2022-07-22T12:11:13;99832.25;;;39.64;21.46
48964;BME280;34776;48.180;16.420;2022-07-22T12:13:44;99827.25;;;39.66;21.21
48964;BME280;34776;48.180;16.420;2022-07-22T12:16:28;99830.75;;;39.94;20.47
48964;BME280;34776;48.180;16.420;2022-07-22T12:19:00;99830.66;;;39.73;20.46
48964;BME280;34776;48.180;16.420;2022-07-22T12:21:28;99820.31;;;39.69;21.23
48964;BME280;34776;48.180;16.420;2022-07-22T12:23:57;99820.13;;;39.86;21.23
48964;BME280;34776;48.180;16.420;2022-07-22T12:29:40;99811.41;;;40.40;19.89
48964;BME280;34776;48.180;16.420;2022-07-22T12:34:47;99803.53;;;40.11;20.72
48964;BME280;34776;48.180;16.420;2022-07-22T12:37:22;99799.72;;;40.33;20.37
48964;BME280;34776;48.180;16.420;2022-07-22T12:40:18;99803.00;;;40.20;19.81
48964;BME280;34776;48.180;16.420;2022-07-22T12:42:45;99796.63;;;39.56;21.18
48964;BME280;34776;48.180;16.420;2022-07-22T12:45:17;99796.72;;;39.76;20.74
48964;BME280;34776;48.180;16.420;2022-07-22T12:50:27;99788.88;;;40.77;19.86
48964;BME280;34776;48.180;16.420;2022-07-22T12:53:02;99789.69;;;41.09;18.84
48964;BME280;34776;48.180;16.420;2022-07-22T12:55:30;99783.25;;;41.24;19.40
48964;BME280;34776;48.180;16.420;2022-07-22T12:57:55;99782.03;;;41.71;18.95
48964;BME280;34776;48.180;16.420;2022-07-22T13:00:25;99782.69;;;42.02;18.85